This is the latest recevied weather packets stored in our database for station/object 9M4GHZ-13. If no packets are shown the sender has not sent any weather packets the latest 10 day(s).
| Time | Temp. | Humidity | Pressure | Rain* | Wind** | Luminosity | Snow |
|---|---|---|---|---|---|---|---|
| 1777894205 | 26.11° C | 84% | 1008.8 hPa | - | - | - | - |
| 1777893603 | 26.11° C | 85% | 1008.6 hPa | - | - | - | - |
| 1777893005 | 26.11° C | 85% | 1008.6 hPa | - | - | - | - |
| 1777892405 | 26.11° C | 85% | 1008.7 hPa | - | - | - | - |
| 1777891804 | 26.67° C | 85% | 1008.5 hPa | - | - | - | - |
| 1777891205 | 26.67° C | 84% | 1008.3 hPa | - | - | - | - |
| 1777890605 | 27.78° C | 80% | 1008.2 hPa | - | - | - | - |
| 1777890005 | 28.33° C | 77% | 1007.9 hPa | - | - | - | - |
| 1777889405 | 28.89° C | 75% | 1007.6 hPa | - | - | - | - |
| 1777888805 | 28.89° C | 75% | 1007.5 hPa | - | - | - | - |
| 1777888204 | 28.89° C | 75% | 1007.3 hPa | - | - | - | - |
| 1777887606 | 29.44° C | 75% | 1006.9 hPa | - | - | - | - |
| 1777887005 | 30° C | 74% | 1007.1 hPa | - | - | - | - |
| 1777886404 | 30° C | 78% | 1007.1 hPa | - | - | - | - |
| 1777885805 | 30° C | 77% | 1007.1 hPa | - | - | - | - |
| 1777885204 | 30° C | 77% | 1006.7 hPa | - | - | - | - |
| 1777884604 | 30.56° C | 74% | 1006.7 hPa | - | - | - | - |
| 1777884004 | 31.11° C | 72% | 1007.1 hPa | - | - | - | - |
| 1777883405 | 31.67° C | 71% | 1006.8 hPa | - | - | - | - |
| 1777882804 | 31.11° C | 70% | 1006.7 hPa | - | - | - | - |
| 1777882204 | 31.67° C | 69% | 1006.5 hPa | - | - | - | - |
| 1777881605 | 31.67° C | 67% | 1006.7 hPa | - | - | - | - |
| 1777881005 | 31.67° C | 66% | 1006.8 hPa | - | - | - | - |
| 1777880405 | 31.67° C | 65% | 1007 hPa | - | - | - | - |
| 1777879805 | 32.78° C | 58% | 1006.8 hPa | - | - | - | - |
* Rain since midnight (hover to see other rain measurements)
** Current wind speed in m/s (hover to see current wind gust speed)